Liberty, Pennsylvania
Current Conditions -  °F | °C
As of 11:15 PM on Thursday 27 Nov 2014 (Local Time) from KN38 Reporting Station
Overcast Overcast  
Wind Chill: 19°   Ceiling: 1800
Heat Index: 27°   Visibility: 9mi
Dew Point: 23°   Wind: 7mph
Humidity: 86%   Direction: 240°WSW
Pressure: 30.03"   Gusts: NA
Location:  41.56°N, 77.1°W
Report Text: KN38 280415Z AUTO 24006KT 9SM BKN018 BKN027 OVC035 M03/M05 A3003 RMK AO2
Loading
Personal Weather Stations






























Interactive Weather Map New forecast layout! Learn more

10-Day Weather Forecast

Advertisements
Track Severe Weather on mobile